Thunder radar more information blitzortung!


Löydät sääaseman tiedot myös:

European Weather Network

Finland Weather Exchange

Weather Underground

AWEKAS



Weather Underground säähistoriasivu

Päivittäin yhteenveto Heinäkuu 4, 2017 Yksiköt:  Englantilaiset    Metriset   Molemmat
« Edellinen Päivä
Seuraava Päivä »
Päivittäin Viikoittain Kuukausittain Vuosittain Mukautettu
  Korkea: Matala: Keskiarvo:
Lämpötila: TemperatureC °F 10.7 °F 12.8 °F
Kastepiste: DewpointC °F 10.1 °F 12.1 °F
Kosteus: Humidity % 84 % 94 %
Tuulen nopeus: WindSpeedKMH mph 0.0 mph 0.8 mph
Tuulenpuuska: WindSpeedGustKMH mph - -
Tuuli:- - WNW
Ilmanpaine: PressurehPa in 999.5 in -
Sade: 9.4 in    
Historical Graphs
 
 
Taulukkotiedot Heinäkuu 4, 2017
Aika Lämpötila Kastepiste Ilmanpaine Tuuli Tuulen nopeus Tuulenpuuska Kosteus Sademäärä (tunneittain)
TemperatureC °F DewpointC °F PressurehPa in Calm     Humidity % HourlyPrecipMM in
00:00 13.6 °F 13.1 °F 1000.2 in Calm     97 % 0.0 in
00:15 13.6 °F 13.1 °F 1000.2 in Calm     97 % 0.3 in
00:30 13.4 °F 12.9 °F 999.9 in Calm     97 % 0.3 in
00:45 13.1 °F 12.5 °F 999.9 in Calm     96 % 0.3 in
01:00 12.8 °F 12.2 °F 999.9 in Calm     96 % 0.3 in
01:15 12.5 °F 11.9 °F 999.9 in Calm     96 % 0.0 in
01:30 12.4 °F 11.9 °F 999.9 in Calm     97 % 0.0 in
01:45 12.3 °F 11.8 °F 999.9 in Calm     97 % 0.0 in
02:00 12.1 °F 11.6 °F 999.9 in Calm     97 % 0.0 in
02:15 11.8 °F 11.4 °F 999.9 in Calm     97 % 0.0 in
02:30 11.7 °F 11.2 °F 999.9 in Calm   1.6 mph 97 % 0.0 in
02:45 11.9 °F 11.5 °F 999.9 in Calm     97 % 0.0 in
03:00 11.9 °F 11.5 °F 999.9 in Calm     97 % 0.0 in
03:15 11.8 °F 11.4 °F 999.5 in Calm     97 % 0.0 in
03:30 11.5 °F 11.0 °F 999.5 in Calm     97 % 0.0 in
03:45 11.4 °F 11.0 °F 999.5 in Calm     97 % 0.0 in
04:00 11.6 °F 11.1 °F 999.5 in Calm     97 % 0.0 in
04:15 11.6 °F 11.2 °F 999.5 in Calm     97 % 0.0 in
04:30 11.7 °F 11.3 °F 999.9 in Calm     97 % 0.0 in
04:45 11.8 °F 11.3 °F 999.9 in Calm     97 % 0.0 in
05:00 11.8 °F 11.3 °F 999.5 in Calm     97 % 0.0 in
05:15 11.8 °F 11.4 °F 999.5 in Calm     97 % 0.0 in
05:30 11.9 °F 11.6 °F 999.5 in Calm     98 % 0.0 in
05:45 12.2 °F 11.9 °F 999.5 in Calm     98 % 0.0 in
06:00 12.4 °F 12.1 °F 999.5 in Calm     98 % 0.0 in
06:15 12.5 °F 12.2 °F 999.9 in Calm     98 % 0.0 in
06:30 12.6 °F 12.2 °F 999.5 in Calm     98 % 0.0 in
06:45 12.6 °F 12.2 °F 999.5 in Calm     98 % 0.0 in
07:00 12.8 °F 12.5 °F 999.5 in Calm     98 % 0.0 in
07:15 12.8 °F 12.5 °F 999.5 in Calm     98 % 0.0 in
07:45 13.3 °F 13.0 °F 999.9 in Calm     98 % 0.0 in
08:00 13.4 °F 13.1 °F 999.9 in Calm     98 % 0.0 in
08:15 13.5 °F 13.2 °F 999.9 in Calm   4.8 mph 98 % 0.0 in
08:30 13.7 °F 13.4 °F 999.5 in Calm   4.8 mph 98 % 0.0 in
08:45 13.7 °F 13.4 °F 999.9 in Calm   1.6 mph 98 % 0.0 in
09:00 13.7 °F 13.2 °F 999.9 in Calm     97 % 0.0 in
09:15 13.7 °F 13.3 °F 999.9 in Calm     97 % 0.0 in
09:30 14.0 °F 13.5 °F 999.9 in Calm   4.8 mph 97 % 0.0 in
09:45 14.3 °F 13.8 °F 999.9 in Calm   4.8 mph 97 % 0.0 in
10:00 14.8 °F 14.0 °F 999.9 in South 1.6 mph 6.4 mph 95 % 0.0 in
10:15 15.3 °F 14.0 °F 999.9 in SSW 1.6 mph 6.4 mph 92 % 0.0 in
10:30 15.4 °F 13.8 °F 999.9 in Calm   8.0 mph 90 % 0.0 in
11:00 15.7 °F 14.0 °F 1000.2 in SSE 1.6 mph 9.7 mph 90 % 0.0 in
11:15 16.2 °F 13.8 °F 1000.2 in South 1.6 mph 9.7 mph 86 % 0.0 in
11:30 16.1 °F 13.9 °F 1000.2 in South 1.6 mph 9.7 mph 87 % 0.0 in
11:45 15.7 °F 13.4 °F 1000.2 in South 3.2 mph 11.3 mph 86 % 0.0 in
12:00 15.8 °F 13.1 °F 1000.2 in SSW 1.6 mph 8.0 mph 84 % 0.0 in
12:15 15.9 °F 13.2 °F 1000.2 in SSW 1.6 mph 9.7 mph 84 % 0.0 in
12:30 15.6 °F 13.2 °F 1000.6 in Calm   1.6 mph 86 % 0.0 in
12:45 14.7 °F 12.7 °F 1000.6 in Calm     88 % 0.5 in
13:00 14.1 °F 12.6 °F 1000.9 in Calm     91 % 1.5 in
13:15 13.5 °F 12.2 °F 1001.2 in Calm     92 % 4.8 in
13:30 13.3 °F 12.4 °F 1001.2 in Calm     94 % 5.3 in
13:45 13.3 °F 12.5 °F 1001.2 in Calm     95 % 5.6 in
14:00 13.4 °F 12.8 °F 1001.2 in Calm   1.6 mph 96 % 4.8 in
14:15 13.3 °F 12.7 °F 1001.6 in Calm   3.2 mph 96 % 1.5 in
14:30 13.3 °F 12.7 °F 1001.6 in Calm   4.8 mph 96 % 1.0 in
14:45 13.1 °F 12.5 °F 1001.6 in Calm     96 % 1.0 in
15:00 13.1 °F 12.5 °F 1001.6 in Calm     96 % 1.5 in
15:15 13.1 °F 12.6 °F 1001.6 in Calm     97 % 1.8 in
15:30 13.1 °F 12.5 °F 1001.6 in Calm     96 % 2.3 in
15:45 13.2 °F 12.8 °F 1001.6 in Calm     97 % 1.5 in
16:00 13.4 °F 12.9 °F 1001.9 in Calm     97 % 1.5 in
16:15 13.7 °F 13.3 °F 1001.9 in Calm     97 % 1.0 in
16:30 14.0 °F 13.5 °F 1001.6 in Calm   3.2 mph 97 % 0.5 in
16:45 14.4 °F 13.9 °F 1001.6 in Calm   6.4 mph 97 % 0.5 in
17:00 14.6 °F 13.9 °F 1001.9 in Calm   6.4 mph 96 % 0.0 in
17:15 14.5 °F 13.9 °F 1001.9 in Calm   8.0 mph 96 % 0.0 in
17:30 14.1 °F 13.1 °F 1002.3 in NW 4.8 mph 17.7 mph 94 % 0.0 in
17:45 13.8 °F 13.0 °F 1002.3 in NW 4.8 mph 14.5 mph 95 % 0.0 in
18:00 13.4 °F 12.7 °F 1002.6 in NW 3.2 mph 14.5 mph 95 % 0.0 in
18:15 13.4 °F 12.7 °F 1002.6 in NW 3.2 mph 9.7 mph 95 % 0.0 in
18:30 13.2 °F 12.4 °F 1002.6 in NNW 4.8 mph 14.5 mph 95 % 0.0 in
18:45 12.9 °F 12.1 °F 1002.6 in NW 4.8 mph 11.3 mph 95 % 0.0 in
19:00 12.6 °F 11.8 °F 1002.9 in NW 6.4 mph 19.3 mph 95 % 0.0 in
19:15 12.4 °F 11.8 °F 1002.9 in NW 1.6 mph 11.3 mph 96 % 0.0 in
19:30 12.3 °F 11.7 °F 1002.9 in NW 1.6 mph 9.7 mph 96 % 0.0 in
19:45 12.2 °F 11.5 °F 1002.9 in NW 3.2 mph 11.3 mph 96 % 0.0 in
20:00 11.9 °F 11.3 °F 1003.3 in NNW 3.2 mph 16.1 mph 96 % 0.0 in
20:15 11.8 °F 11.2 °F 1003.3 in NNW 1.6 mph 14.5 mph 96 % 0.0 in
20:30 11.7 °F 11.1 °F 1003.3 in NW 4.8 mph 11.3 mph 96 % 0.0 in
20:45 11.6 °F 10.9 °F 1003.6 in NNW 1.6 mph 8.0 mph 96 % 0.0 in
21:00 11.4 °F 10.8 °F 1003.6 in NNW 3.2 mph 11.3 mph 96 % 0.0 in
21:15 11.3 °F 10.7 °F 1003.6 in NNW 1.6 mph 11.3 mph 96 % 0.0 in
21:30 11.3 °F 10.7 °F 1003.9 in NW 1.6 mph 9.7 mph 96 % 0.0 in
21:45 11.2 °F 10.6 °F 1003.9 in Calm   6.4 mph 96 % 0.0 in
22:00 11.2 °F 10.6 °F 1003.9 in Calm   8.0 mph 96 % 0.0 in
22:15 11.2 °F 10.6 °F 1003.9 in NNW 1.6 mph 6.4 mph 96 % 0.0 in
22:30 11.1 °F 10.5 °F 1004.3 in Calm   6.4 mph 96 % 0.0 in
22:45 11.1 °F 10.4 °F 1004.3 in NW 1.6 mph 11.3 mph 96 % 0.0 in
23:00 10.9 °F 10.3 °F 1004.3 in NW 1.6 mph 12.9 mph 96 % 0.0 in
23:15 10.8 °F 10.2 °F 1004.3 in Calm   6.4 mph 96 % 0.0 in
23:30 10.8 °F 10.2 °F 1004.3 in NW 1.6 mph 8.0 mph 96 % 0.0 in
23:45 10.7 °F 10.1 °F 1004.6 in NW 1.6 mph 9.7 mph 96 % 0.0 in
Esan sääasema
Terveisin Weather Underground - 2.75 mb

Alkuperäinen skripti  Jim McMurry - jmcmurry@mwt.net Sovitettu myös templatelle  Wim van der Kuil - Leuven-Template.eu

Laitteet joita käytämme:

Sääasema
Davis VP2

Sääasemaohjelma
Cumulus

Sääaseman tietokone
Asus EeePC

Palveluntarjoaja
Suncomet

Davis VP2

Cumulus

Asus EeePC

Suncomet